sensor_id;sensor_type;location;lat;lon;timestamp;temperature;humidity
27823;DHT22;29019;47.630;8.262;2023-03-14T00:01:57;21.10;34.60
27823;DHT22;29019;47.630;8.262;2023-03-14T00:06:01;21.10;34.60
27823;DHT22;29019;47.630;8.262;2023-03-14T00:10:05;21.10;34.60
27823;DHT22;29019;47.630;8.262;2023-03-14T00:14:06;21.10;34.60
27823;DHT22;29019;47.630;8.262;2023-03-14T00:18:07;21.00;34.60
27823;DHT22;29019;47.630;8.262;2023-03-14T00:22:07;21.00;34.70
27823;DHT22;29019;47.630;8.262;2023-03-14T00:26:09;21.00;34.50
27823;DHT22;29019;47.630;8.262;2023-03-14T00:30:10;21.00;34.50
27823;DHT22;29019;47.630;8.262;2023-03-14T00:34:11;21.00;34.50
27823;DHT22;29019;47.630;8.262;2023-03-14T00:38:11;21.00;34.50
27823;DHT22;29019;47.630;8.262;2023-03-14T00:42:11;20.90;34.50
27823;DHT22;29019;47.630;8.262;2023-03-14T00:46:12;20.90;34.60
27823;DHT22;29019;47.630;8.262;2023-03-14T00:50:12;20.90;34.60
27823;DHT22;29019;47.630;8.262;2023-03-14T00:54:13;20.90;34.60
27823;DHT22;29019;47.630;8.262;2023-03-14T00:58:14;20.90;34.70
27823;DHT22;29019;47.630;8.262;2023-03-14T01:02:15;20.90;34.80
27823;DHT22;29019;47.630;8.262;2023-03-14T01:06:16;20.90;34.80
27823;DHT22;29019;47.630;8.262;2023-03-14T01:10:17;20.90;34.70
27823;DHT22;29019;47.630;8.262;2023-03-14T01:14:17;20.90;34.70
27823;DHT22;29019;47.630;8.262;2023-03-14T01:18:18;20.90;34.70
27823;DHT22;29019;47.630;8.262;2023-03-14T01:22:18;20.80;34.70
27823;DHT22;29019;47.630;8.262;2023-03-14T01:26:22;20.80;34.60
27823;DHT22;29019;47.630;8.262;2023-03-14T01:30:22;20.80;34.70
27823;DHT22;29019;47.630;8.262;2023-03-14T01:34:23;20.80;34.70
27823;DHT22;29019;47.630;8.262;2023-03-14T01:38:23;20.80;34.70
27823;DHT22;29019;47.630;8.262;2023-03-14T01:42:24;20.80;34.70
27823;DHT22;29019;47.630;8.262;2023-03-14T01:46:25;20.80;34.80
27823;DHT22;29019;47.630;8.262;2023-03-14T01:50:26;20.70;34.70
27823;DHT22;29019;47.630;8.262;2023-03-14T01:54:28;20.70;34.70
27823;DHT22;29019;47.630;8.262;2023-03-14T01:58:30;20.70;34.60
27823;DHT22;29019;47.630;8.262;2023-03-14T02:02:34;20.70;34.60
27823;DHT22;29019;47.630;8.262;2023-03-14T02:06:45;20.70;34.70
27823;DHT22;29019;47.630;8.262;2023-03-14T02:10:48;20.70;34.70
27823;DHT22;29019;47.630;8.262;2023-03-14T02:14:48;20.70;34.70
27823;DHT22;29019;47.630;8.262;2023-03-14T02:18:49;20.70;34.70
27823;DHT22;29019;47.630;8.262;2023-03-14T02:22:49;20.60;34.60
27823;DHT22;29019;47.630;8.262;2023-03-14T02:27:09;20.60;34.70
27823;DHT22;29019;47.630;8.262;2023-03-14T02:31:10;20.60;34.70
27823;DHT22;29019;47.630;8.262;2023-03-14T02:35:12;20.60;34.60
27823;DHT22;29019;47.630;8.262;2023-03-14T02:39:15;20.60;34.60
27823;DHT22;29019;47.630;8.262;2023-03-14T02:43:19;20.60;34.60
27823;DHT22;29019;47.630;8.262;2023-03-14T02:47:22;20.60;34.60
27823;DHT22;29019;47.630;8.262;2023-03-14T02:51:23;20.50;34.50
27823;DHT22;29019;47.630;8.262;2023-03-14T02:55:24;20.60;34.60
27823;DHT22;29019;47.630;8.262;2023-03-14T02:59:26;20.60;34.60
27823;DHT22;29019;47.630;8.262;2023-03-14T03:03:27;20.50;34.60
27823;DHT22;29019;47.630;8.262;2023-03-14T03:07:27;20.50;34.50
27823;DHT22;29019;47.630;8.262;2023-03-14T03:11:28;20.50;34.60
27823;DHT22;29019;47.630;8.262;2023-03-14T03:15:28;20.50;34.60
27823;DHT22;29019;47.630;8.262;2023-03-14T03:19:29;20.50;34.50
27823;DHT22;29019;47.630;8.262;2023-03-14T03:23:29;20.50;34.50
27823;DHT22;29019;47.630;8.262;2023-03-14T03:27:30;20.50;34.50
27823;DHT22;29019;47.630;8.262;2023-03-14T03:31:31;20.50;34.60
27823;DHT22;29019;47.630;8.262;2023-03-14T03:35:32;20.50;34.60
27823;DHT22;29019;47.630;8.262;2023-03-14T03:39:32;20.50;34.60
27823;DHT22;29019;47.630;8.262;2023-03-14T03:43:33;20.40;34.50
27823;DHT22;29019;47.630;8.262;2023-03-14T03:47:33;20.40;34.50
27823;DHT22;29019;47.630;8.262;2023-03-14T03:51:34;20.40;34.60
27823;DHT22;29019;47.630;8.262;2023-03-14T03:55:34;20.40;34.60
27823;DHT22;29019;47.630;8.262;2023-03-14T03:59:35;20.40;34.60
27823;DHT22;29019;47.630;8.262;2023-03-14T04:03:35;20.40;34.60
27823;DHT22;29019;47.630;8.262;2023-03-14T04:07:36;20.40;34.50
27823;DHT22;29019;47.630;8.262;2023-03-14T04:11:36;20.40;34.60
27823;DHT22;29019;47.630;8.262;2023-03-14T04:15:37;20.40;34.60
27823;DHT22;29019;47.630;8.262;2023-03-14T04:19:37;20.30;34.60
27823;DHT22;29019;47.630;8.262;2023-03-14T04:23:38;20.40;34.60
27823;DHT22;29019;47.630;8.262;2023-03-14T04:27:38;20.30;34.50
27823;DHT22;29019;47.630;8.262;2023-03-14T04:31:38;20.30;34.50
27823;DHT22;29019;47.630;8.262;2023-03-14T04:35:39;20.40;34.50
27823;DHT22;29019;47.630;8.262;2023-03-14T04:39:39;20.30;34.50
27823;DHT22;29019;47.630;8.262;2023-03-14T04:43:40;20.40;34.50
27823;DHT22;29019;47.630;8.262;2023-03-14T04:47:40;20.40;34.40
27823;DHT22;29019;47.630;8.262;2023-03-14T04:51:41;20.40;34.50
27823;DHT22;29019;47.630;8.262;2023-03-14T04:55:41;20.30;34.40
27823;DHT22;29019;47.630;8.262;2023-03-14T04:59:42;20.40;34.40
27823;DHT22;29019;47.630;8.262;2023-03-14T05:03:42;20.30;34.40
27823;DHT22;29019;47.630;8.262;2023-03-14T05:07:43;20.40;34.50
27823;DHT22;29019;47.630;8.262;2023-03-14T05:11:43;20.40;34.40
27823;DHT22;29019;47.630;8.262;2023-03-14T05:15:43;20.50;34.30
27823;DHT22;29019;47.630;8.262;2023-03-14T05:19:44;20.50;34.30
27823;DHT22;29019;47.630;8.262;2023-03-14T05:23:44;20.60;34.20
27823;DHT22;29019;47.630;8.262;2023-03-14T05:27:45;20.60;34.20
27823;DHT22;29019;47.630;8.262;2023-03-14T05:31:45;20.80;34.20
27823;DHT22;29019;47.630;8.262;2023-03-14T05:35:46;20.80;34.10
27823;DHT22;29019;47.630;8.262;2023-03-14T05:39:46;20.90;34.10
27823;DHT22;29019;47.630;8.262;2023-03-14T05:43:47;20.90;34.00
27823;DHT22;29019;47.630;8.262;2023-03-14T05:47:47;21.00;34.10
27823;DHT22;29019;47.630;8.262;2023-03-14T05:51:48;21.00;34.10
27823;DHT22;29019;47.630;8.262;2023-03-14T05:55:50;21.10;34.10
27823;DHT22;29019;47.630;8.262;2023-03-14T05:59:51;21.10;34.20
27823;DHT22;29019;47.630;8.262;2023-03-14T06:03:51;21.00;34.10
27823;DHT22;29019;47.630;8.262;2023-03-14T06:07:52;21.00;34.00
27823;DHT22;29019;47.630;8.262;2023-03-14T06:11:52;21.00;34.10
27823;DHT22;29019;47.630;8.262;2023-03-14T06:15:53;21.00;34.20
27823;DHT22;29019;47.630;8.262;2023-03-14T06:19:53;21.00;34.20
27823;DHT22;29019;47.630;8.262;2023-03-14T06:23:53;21.00;34.20
27823;DHT22;29019;47.630;8.262;2023-03-14T06:27:54;21.00;34.20
27823;DHT22;29019;47.630;8.262;2023-03-14T06:31:54;20.90;34.20
27823;DHT22;29019;47.630;8.262;2023-03-14T06:35:55;20.90;34.30
27823;DHT22;29019;47.630;8.262;2023-03-14T06:39:55;20.90;34.30
27823;DHT22;29019;47.630;8.262;2023-03-14T06:43:56;20.90;34.30
27823;DHT22;29019;47.630;8.262;2023-03-14T06:47:56;20.90;34.20
27823;DHT22;29019;47.630;8.262;2023-03-14T06:51:57;20.90;34.20
27823;DHT22;29019;47.630;8.262;2023-03-14T06:55:57;20.90;34.10
27823;DHT22;29019;47.630;8.262;2023-03-14T06:59:58;21.00;34.10
27823;DHT22;29019;47.630;8.262;2023-03-14T07:03:58;21.00;34.10
27823;DHT22;29019;47.630;8.262;2023-03-14T07:07:58;21.10;34.10
27823;DHT22;29019;47.630;8.262;2023-03-14T07:11:59;21.10;34.00
27823;DHT22;29019;47.630;8.262;2023-03-14T07:15:59;21.10;34.00
27823;DHT22;29019;47.630;8.262;2023-03-14T07:20:00;21.20;34.00
27823;DHT22;29019;47.630;8.262;2023-03-14T07:24:01;21.20;34.00
27823;DHT22;29019;47.630;8.262;2023-03-14T07:28:01;21.20;34.00
27823;DHT22;29019;47.630;8.262;2023-03-14T07:32:02;21.30;34.00
27823;DHT22;29019;47.630;8.262;2023-03-14T07:36:03;21.30;34.00
27823;DHT22;29019;47.630;8.262;2023-03-14T07:40:03;21.30;34.10
27823;DHT22;29019;47.630;8.262;2023-03-14T07:44:07;21.30;34.00
27823;DHT22;29019;47.630;8.262;2023-03-14T07:48:07;21.30;34.00
27823;DHT22;29019;47.630;8.262;2023-03-14T07:52:08;21.20;34.10
27823;DHT22;29019;47.630;8.262;2023-03-14T07:56:08;21.20;34.10
27823;DHT22;29019;47.630;8.262;2023-03-14T08:00:09;21.20;34.20
27823;DHT22;29019;47.630;8.262;2023-03-14T08:04:10;21.10;34.20
27823;DHT22;29019;47.630;8.262;2023-03-14T08:08:10;21.10;34.30
27823;DHT22;29019;47.630;8.262;2023-03-14T08:12:11;21.10;34.20
27823;DHT22;29019;47.630;8.262;2023-03-14T08:16:11;21.10;34.30
27823;DHT22;29019;47.630;8.262;2023-03-14T08:20:12;21.00;34.20
27823;DHT22;29019;47.630;8.262;2023-03-14T08:24:13;21.00;34.20
27823;DHT22;29019;47.630;8.262;2023-03-14T08:28:13;21.00;34.20
27823;DHT22;29019;47.630;8.262;2023-03-14T08:32:14;21.00;34.20
27823;DHT22;29019;47.630;8.262;2023-03-14T08:36:14;21.00;34.20
27823;DHT22;29019;47.630;8.262;2023-03-14T08:40:15;21.00;34.10
27823;DHT22;29019;47.630;8.262;2023-03-14T08:44:17;21.00;34.20
27823;DHT22;29019;47.630;8.262;2023-03-14T08:48:17;20.90;34.10
27823;DHT22;29019;47.630;8.262;2023-03-14T08:52:19;20.90;34.10
27823;DHT22;29019;47.630;8.262;2023-03-14T08:56:20;20.90;34.00
27823;DHT22;29019;47.630;8.262;2023-03-14T09:00:20;20.90;34.00
27823;DHT22;29019;47.630;8.262;2023-03-14T09:04:21;20.90;34.00
27823;DHT22;29019;47.630;8.262;2023-03-14T09:08:21;20.90;34.00
27823;DHT22;29019;47.630;8.262;2023-03-14T09:12:22;20.90;34.00
27823;DHT22;29019;47.630;8.262;2023-03-14T09:16:22;20.90;34.00
27823;DHT22;29019;47.630;8.262;2023-03-14T09:20:23;20.90;34.10
27823;DHT22;29019;47.630;8.262;2023-03-14T09:24:23;20.90;34.60
27823;DHT22;29019;47.630;8.262;2023-03-14T09:28:24;20.80;34.00
27823;DHT22;29019;47.630;8.262;2023-03-14T09:32:24;20.80;34.00
27823;DHT22;29019;47.630;8.262;2023-03-14T09:36:25;20.80;34.00
27823;DHT22;29019;47.630;8.262;2023-03-14T09:40:27;20.80;34.00
27823;DHT22;29019;47.630;8.262;2023-03-14T09:44:32;20.80;34.00
27823;DHT22;29019;47.630;8.262;2023-03-14T09:48:33;20.90;34.10
27823;DHT22;29019;47.630;8.262;2023-03-14T09:52:35;20.80;34.00
27823;DHT22;29019;47.630;8.262;2023-03-14T09:56:36;20.80;34.00
27823;DHT22;29019;47.630;8.262;2023-03-14T10:00:37;20.80;34.00
27823;DHT22;29019;47.630;8.262;2023-03-14T10:04:37;20.80;34.00
27823;DHT22;29019;47.630;8.262;2023-03-14T10:08:42;20.80;34.10
27823;DHT22;29019;47.630;8.262;2023-03-14T10:12:44;20.80;34.10
27823;DHT22;29019;47.630;8.262;2023-03-14T10:16:45;20.70;34.10
27823;DHT22;29019;47.630;8.262;2023-03-14T10:20:47;20.70;34.10
27823;DHT22;29019;47.630;8.262;2023-03-14T10:24:52;20.70;34.10
27823;DHT22;29019;47.630;8.262;2023-03-14T10:28:54;20.70;34.10
27823;DHT22;29019;47.630;8.262;2023-03-14T10:33:07;20.70;34.10
27823;DHT22;29019;47.630;8.262;2023-03-14T10:37:18;20.70;34.10
27823;DHT22;29019;47.630;8.262;2023-03-14T10:41:25;20.70;34.20
27823;DHT22;29019;47.630;8.262;2023-03-14T10:45:59;20.70;34.20
27823;DHT22;29019;47.630;8.262;2023-03-14T10:49:52;20.70;34.20
27823;DHT22;29019;47.630;8.262;2023-03-14T10:54:03;20.60;34.20
27823;DHT22;29019;47.630;8.262;2023-03-14T10:58:04;20.60;34.20
27823;DHT22;29019;47.630;8.262;2023-03-14T11:11:02;20.60;34.30
27823;DHT22;29019;47.630;8.262;2023-03-14T11:23:21;20.60;34.30
27823;DHT22;29019;47.630;8.262;2023-03-14T11:27:23;20.60;34.30
27823;DHT22;29019;47.630;8.262;2023-03-14T11:31:26;20.60;34.40
27823;DHT22;29019;47.630;8.262;2023-03-14T11:35:32;20.60;34.40
27823;DHT22;29019;47.630;8.262;2023-03-14T11:39:40;20.50;34.40
27823;DHT22;29019;47.630;8.262;2023-03-14T11:43:41;20.50;34.40
27823;DHT22;29019;47.630;8.262;2023-03-14T11:47:49;20.50;34.40
27823;DHT22;29019;47.630;8.262;2023-03-14T11:51:52;20.50;34.40
27823;DHT22;29019;47.630;8.262;2023-03-14T11:55:54;20.50;34.40
27823;DHT22;29019;47.630;8.262;2023-03-14T11:59:55;20.50;34.40
27823;DHT22;29019;47.630;8.262;2023-03-14T12:04:00;20.50;34.50
27823;DHT22;29019;47.630;8.262;2023-03-14T12:12:10;20.50;34.50
27823;DHT22;29019;47.630;8.262;2023-03-14T12:20:25;20.50;34.60
27823;DHT22;29019;47.630;8.262;2023-03-14T12:24:27;20.50;34.60
27823;DHT22;29019;47.630;8.262;2023-03-14T12:28:32;20.40;34.60
27823;DHT22;29019;47.630;8.262;2023-03-14T12:32:32;20.40;34.60
27823;DHT22;29019;47.630;8.262;2023-03-14T12:44:52;20.50;34.70
27823;DHT22;29019;47.630;8.262;2023-03-14T12:53:08;20.40;34.60
27823;DHT22;29019;47.630;8.262;2023-03-14T13:01:16;20.40;34.60
27823;DHT22;29019;47.630;8.262;2023-03-14T13:05:21;20.40;34.60
27823;DHT22;29019;47.630;8.262;2023-03-14T13:13:26;20.40;34.60
27823;DHT22;29019;47.630;8.262;2023-03-14T13:17:31;20.40;34.50
27823;DHT22;29019;47.630;8.262;2023-03-14T13:21:34;20.50;34.40
27823;DHT22;29019;47.630;8.262;2023-03-14T13:25:35;20.50;34.40
27823;DHT22;29019;47.630;8.262;2023-03-14T13:29:36;20.50;34.30
27823;DHT22;29019;47.630;8.262;2023-03-14T13:33:37;20.40;34.20
27823;DHT22;29019;47.630;8.262;2023-03-14T13:37:41;20.50;34.30
27823;DHT22;29019;47.630;8.262;2023-03-14T13:41:41;20.40;34.10
27823;DHT22;29019;47.630;8.262;2023-03-14T13:45:52;20.40;34.10
27823;DHT22;29019;47.630;8.262;2023-03-14T13:49:52;20.40;34.10
27823;DHT22;29019;47.630;8.262;2023-03-14T13:53:54;20.40;34.20
27823;DHT22;29019;47.630;8.262;2023-03-14T13:57:54;20.40;34.10
27823;DHT22;29019;47.630;8.262;2023-03-14T14:01:56;20.40;34.00
27823;DHT22;29019;47.630;8.262;2023-03-14T14:05:58;20.50;34.00
27823;DHT22;29019;47.630;8.262;2023-03-14T14:09:59;20.50;34.00
27823;DHT22;29019;47.630;8.262;2023-03-14T14:14:01;20.40;33.90
27823;DHT22;29019;47.630;8.262;2023-03-14T14:18:06;20.40;33.80
27823;DHT22;29019;47.630;8.262;2023-03-14T14:22:09;20.50;33.90
27823;DHT22;29019;47.630;8.262;2023-03-14T14:26:13;20.50;34.00
27823;DHT22;29019;47.630;8.262;2023-03-14T14:34:18;20.40;33.90
27823;DHT22;29019;47.630;8.262;2023-03-14T14:38:19;20.40;33.90
27823;DHT22;29019;47.630;8.262;2023-03-14T14:42:20;20.30;33.90
27823;DHT22;29019;47.630;8.262;2023-03-14T14:46:22;20.40;33.90
27823;DHT22;29019;47.630;8.262;2023-03-14T14:54:48;20.40;33.90
27823;DHT22;29019;47.630;8.262;2023-03-14T14:58:46;20.40;33.90
27823;DHT22;29019;47.630;8.262;2023-03-14T15:02:48;20.30;33.80
27823;DHT22;29019;47.630;8.262;2023-03-14T15:06:49;20.40;33.90
27823;DHT22;29019;47.630;8.262;2023-03-14T15:10:50;20.40;33.90
27823;DHT22;29019;47.630;8.262;2023-03-14T15:14:50;20.30;33.90
27823;DHT22;29019;47.630;8.262;2023-03-14T15:18:54;20.30;33.90
27823;DHT22;29019;47.630;8.262;2023-03-14T15:22:57;20.30;33.90
27823;DHT22;29019;47.630;8.262;2023-03-14T15:27:03;20.30;33.80
27823;DHT22;29019;47.630;8.262;2023-03-14T15:31:05;20.30;33.80
27823;DHT22;29019;47.630;8.262;2023-03-14T15:35:05;20.30;33.80
27823;DHT22;29019;47.630;8.262;2023-03-14T15:39:06;20.30;33.80
27823;DHT22;29019;47.630;8.262;2023-03-14T15:43:07;20.30;33.70
27823;DHT22;29019;47.630;8.262;2023-03-14T15:47:08;20.40;33.70
27823;DHT22;29019;47.630;8.262;2023-03-14T15:51:10;20.30;33.60
27823;DHT22;29019;47.630;8.262;2023-03-14T15:55:10;20.30;33.70
27823;DHT22;29019;47.630;8.262;2023-03-14T15:59:11;20.30;33.80
27823;DHT22;29019;47.630;8.262;2023-03-14T16:03:12;20.30;33.80
27823;DHT22;29019;47.630;8.262;2023-03-14T16:07:12;20.30;33.80
27823;DHT22;29019;47.630;8.262;2023-03-14T16:11:13;20.30;33.90
27823;DHT22;29019;47.630;8.262;2023-03-14T16:15:15;20.30;33.70
27823;DHT22;29019;47.630;8.262;2023-03-14T16:19:15;20.50;33.70
27823;DHT22;29019;47.630;8.262;2023-03-14T16:23:15;20.50;33.60
27823;DHT22;29019;47.630;8.262;2023-03-14T16:27:17;20.60;33.60
27823;DHT22;29019;47.630;8.262;2023-03-14T16:31:18;20.70;33.50
27823;DHT22;29019;47.630;8.262;2023-03-14T16:35:20;20.70;33.40
27823;DHT22;29019;47.630;8.262;2023-03-14T16:39:20;20.80;33.50
27823;DHT22;29019;47.630;8.262;2023-03-14T16:43:21;20.80;33.40
27823;DHT22;29019;47.630;8.262;2023-03-14T16:47:21;20.90;33.40
27823;DHT22;29019;47.630;8.262;2023-03-14T16:51:22;20.90;33.30
27823;DHT22;29019;47.630;8.262;2023-03-14T16:55:23;21.00;33.30
27823;DHT22;29019;47.630;8.262;2023-03-14T16:59:23;21.00;33.40
27823;DHT22;29019;47.630;8.262;2023-03-14T17:03:25;21.10;33.40
27823;DHT22;29019;47.630;8.262;2023-03-14T17:07:26;21.00;33.30
27823;DHT22;29019;47.630;8.262;2023-03-14T17:11:27;21.00;33.30
27823;DHT22;29019;47.630;8.262;2023-03-14T17:15:27;21.00;33.30
27823;DHT22;29019;47.630;8.262;2023-03-14T17:19:28;21.00;33.40
27823;DHT22;29019;47.630;8.262;2023-03-14T17:23:29;21.00;33.40
27823;DHT22;29019;47.630;8.262;2023-03-14T17:27:29;21.00;33.40
27823;DHT22;29019;47.630;8.262;2023-03-14T17:31:31;20.90;33.40
27823;DHT22;29019;47.630;8.262;2023-03-14T17:35:31;20.90;33.40
27823;DHT22;29019;47.630;8.262;2023-03-14T17:39:31;20.90;33.50
27823;DHT22;29019;47.630;8.262;2023-03-14T17:43:32;20.90;33.50
27823;DHT22;29019;47.630;8.262;2023-03-14T17:47:33;20.80;33.50
27823;DHT22;29019;47.630;8.262;2023-03-14T17:51:33;20.90;33.50
27823;DHT22;29019;47.630;8.262;2023-03-14T17:55:33;20.80;33.50
27823;DHT22;29019;47.630;8.262;2023-03-14T17:59:34;20.80;33.50
27823;DHT22;29019;47.630;8.262;2023-03-14T18:03:34;20.90;33.60
27823;DHT22;29019;47.630;8.262;2023-03-14T18:07:35;20.90;33.50
27823;DHT22;29019;47.630;8.262;2023-03-14T18:11:36;20.90;33.50
27823;DHT22;29019;47.630;8.262;2023-03-14T18:15:36;20.90;33.50
27823;DHT22;29019;47.630;8.262;2023-03-14T18:19:37;20.90;33.50
27823;DHT22;29019;47.630;8.262;2023-03-14T18:23:38;21.00;33.50
27823;DHT22;29019;47.630;8.262;2023-03-14T18:27:38;21.00;33.40
27823;DHT22;29019;47.630;8.262;2023-03-14T18:31:40;21.00;33.40
27823;DHT22;29019;47.630;8.262;2023-03-14T18:35:40;21.10;33.40
27823;DHT22;29019;47.630;8.262;2023-03-14T18:39:41;21.10;33.40
27823;DHT22;29019;47.630;8.262;2023-03-14T18:43:41;21.10;33.40
27823;DHT22;29019;47.630;8.262;2023-03-14T18:47:42;21.10;33.50
27823;DHT22;29019;47.630;8.262;2023-03-14T18:51:42;21.00;33.50
27823;DHT22;29019;47.630;8.262;2023-03-14T18:55:43;21.00;33.50
27823;DHT22;29019;47.630;8.262;2023-03-14T18:59:43;21.00;33.50
27823;DHT22;29019;47.630;8.262;2023-03-14T19:03:44;21.00;33.60
27823;DHT22;29019;47.630;8.262;2023-03-14T19:07:46;20.90;33.50
27823;DHT22;29019;47.630;8.262;2023-03-14T19:11:47;20.90;33.50
27823;DHT22;29019;47.630;8.262;2023-03-14T19:15:47;20.90;33.50
27823;DHT22;29019;47.630;8.262;2023-03-14T19:19:47;20.90;33.50
27823;DHT22;29019;47.630;8.262;2023-03-14T19:23:51;20.80;33.50
27823;DHT22;29019;47.630;8.262;2023-03-14T19:27:51;20.80;33.50
27823;DHT22;29019;47.630;8.262;2023-03-14T19:31:51;20.80;33.50
27823;DHT22;29019;47.630;8.262;2023-03-14T19:35:53;20.80;33.60
27823;DHT22;29019;47.630;8.262;2023-03-14T19:39:53;20.80;33.50
27823;DHT22;29019;47.630;8.262;2023-03-14T19:43:54;20.80;33.60
27823;DHT22;29019;47.630;8.262;2023-03-14T19:47:54;20.90;33.50
27823;DHT22;29019;47.630;8.262;2023-03-14T19:51:55;20.90;34.00
27823;DHT22;29019;47.630;8.262;2023-03-14T19:55:55;20.90;33.40
27823;DHT22;29019;47.630;8.262;2023-03-14T19:59:56;21.00;33.40
27823;DHT22;29019;47.630;8.262;2023-03-14T20:03:57;21.00;33.40
27823;DHT22;29019;47.630;8.262;2023-03-14T20:07:57;21.10;33.40
27823;DHT22;29019;47.630;8.262;2023-03-14T20:11:58;21.10;33.40
27823;DHT22;29019;47.630;8.262;2023-03-14T20:15:58;21.00;33.30
27823;DHT22;29019;47.630;8.262;2023-03-14T20:19:59;21.00;33.30
27823;DHT22;29019;47.630;8.262;2023-03-14T20:23:59;21.00;33.40
27823;DHT22;29019;47.630;8.262;2023-03-14T20:28:00;21.00;33.40
27823;DHT22;29019;47.630;8.262;2023-03-14T20:32:01;21.00;33.30
27823;DHT22;29019;47.630;8.262;2023-03-14T20:36:01;21.00;33.40
27823;DHT22;29019;47.630;8.262;2023-03-14T20:40:02;20.90;33.40
27823;DHT22;29019;47.630;8.262;2023-03-14T20:44:09;20.90;33.40
27823;DHT22;29019;47.630;8.262;2023-03-14T20:48:12;20.90;33.50
27823;DHT22;29019;47.630;8.262;2023-03-14T20:52:13;20.90;33.50
27823;DHT22;29019;47.630;8.262;2023-03-14T20:56:14;20.80;33.50
27823;DHT22;29019;47.630;8.262;2023-03-14T21:00:15;20.80;33.50
27823;DHT22;29019;47.630;8.262;2023-03-14T21:04:16;20.80;33.50
27823;DHT22;29019;47.630;8.262;2023-03-14T21:08:18;20.80;33.50
27823;DHT22;29019;47.630;8.262;2023-03-14T21:12:19;20.80;33.60
27823;DHT22;29019;47.630;8.262;2023-03-14T21:16:19;20.80;33.60
27823;DHT22;29019;47.630;8.262;2023-03-14T21:20:20;20.80;33.50
27823;DHT22;29019;47.630;8.262;2023-03-14T21:24:20;20.90;33.60
27823;DHT22;29019;47.630;8.262;2023-03-14T21:28:21;20.90;33.50
27823;DHT22;29019;47.630;8.262;2023-03-14T21:32:22;20.90;33.50
27823;DHT22;29019;47.630;8.262;2023-03-14T21:36:22;21.00;33.50
27823;DHT22;29019;47.630;8.262;2023-03-14T21:40:23;21.00;33.40
27823;DHT22;29019;47.630;8.262;2023-03-14T21:44:23;21.00;33.40
27823;DHT22;29019;47.630;8.262;2023-03-14T21:48:24;21.00;33.40
27823;DHT22;29019;47.630;8.262;2023-03-14T21:52:25;20.90;33.30
27823;DHT22;29019;47.630;8.262;2023-03-14T21:56:26;20.90;33.40
27823;DHT22;29019;47.630;8.262;2023-03-14T22:00:26;20.90;33.40
27823;DHT22;29019;47.630;8.262;2023-03-14T22:04:28;20.90;33.40
27823;DHT22;29019;47.630;8.262;2023-03-14T22:08:33;20.80;33.30
27823;DHT22;29019;47.630;8.262;2023-03-14T22:12:34;20.80;33.40
27823;DHT22;29019;47.630;8.262;2023-03-14T22:16:34;20.80;33.30
27823;DHT22;29019;47.630;8.262;2023-03-14T22:20:35;20.70;33.30
27823;DHT22;29019;47.630;8.262;2023-03-14T22:24:35;20.70;33.40
27823;DHT22;29019;47.630;8.262;2023-03-14T22:28:36;20.70;33.40
27823;DHT22;29019;47.630;8.262;2023-03-14T22:32:36;20.70;33.40
27823;DHT22;29019;47.630;8.262;2023-03-14T22:36:36;20.60;33.50
27823;DHT22;29019;47.630;8.262;2023-03-14T22:40:37;20.60;33.50
27823;DHT22;29019;47.630;8.262;2023-03-14T22:44:38;20.60;33.50
27823;DHT22;29019;47.630;8.262;2023-03-14T22:48:38;20.60;33.50
27823;DHT22;29019;47.630;8.262;2023-03-14T22:52:39;20.50;33.60
27823;DHT22;29019;47.630;8.262;2023-03-14T22:56:39;20.50;33.60
27823;DHT22;29019;47.630;8.262;2023-03-14T23:00:40;20.50;33.60
27823;DHT22;29019;47.630;8.262;2023-03-14T23:04:40;20.50;34.10
27823;DHT22;29019;47.630;8.262;2023-03-14T23:08:41;20.40;34.10
27823;DHT22;29019;47.630;8.262;2023-03-14T23:12:41;20.40;33.50
27823;DHT22;29019;47.630;8.262;2023-03-14T23:16:44;20.40;33.60
27823;DHT22;29019;47.630;8.262;2023-03-14T23:20:46;20.40;33.60
27823;DHT22;29019;47.630;8.262;2023-03-14T23:24:47;20.30;33.60
27823;DHT22;29019;47.630;8.262;2023-03-14T23:28:49;20.30;33.60
27823;DHT22;29019;47.630;8.262;2023-03-14T23:32:49;20.30;33.60
27823;DHT22;29019;47.630;8.262;2023-03-14T23:36:50;20.30;33.60
27823;DHT22;29019;47.630;8.262;2023-03-14T23:40:50;20.20;33.60
27823;DHT22;29019;47.630;8.262;2023-03-14T23:44:51;20.20;33.60
27823;DHT22;29019;47.630;8.262;2023-03-14T23:48:52;20.20;33.60
27823;DHT22;29019;47.630;8.262;2023-03-14T23:52:54;20.20;33.60
27823;DHT22;29019;47.630;8.262;2023-03-14T23:56:54;20.10;33.60
